Estación Meteorológica Peña el Pijo (Robertgarden) [ 07/21/19 02:39:50 CEST ]

Fecha Hora Presion(HPa) Temp (°C) Humedad % Rocio (°C) Viento ( m/s) Direccion Lluvia 1Hora(mm) Lluvia 24H(mm) LLuvia Total(mm)
2018-Nov-28 01:01:38 1012.900 0.4 69 -4.6         154.88
2018-Nov-28 02:09:05 1012.800 0.1 72 -4.3         154.88
2018-Nov-28 03:01:30 1012.500 -0.6 75 -4.5         154.88
2018-Nov-28 04:01:43 1012.300 -0.8 76 -4.5         154.88
2018-Nov-28 05:01:39 1012.000 -0.2 77 -3.7         154.88
2018-Nov-28 06:01:41 1012.300 -0.2 76 -3.9         154.88
2018-Nov-28 07:01:53 1012.800 -1.1 76 -4.8         154.88
2018-Nov-28 08:01:43 1012.800 -1.4 77 -4.9         154.88
2018-Nov-28 09:01:47 1013.100 -0.6 78 -4.0         154.88
2018-Nov-28 10:01:42 1013.400 7.2 64 0.8         154.88
2018-Nov-28 11:01:52 1013.400 12.7 45 1.0         154.88
2018-Nov-28 12:01:47 1013.300 14.7 38 0.4         154.88
2018-Nov-28 13:01:50 1012.400 18.0 24 -3.1         154.88
2018-Nov-28 14:01:39 1011.900 20.9 19 -3.8         154.88
2018-Nov-28 15:01:50 1011.400 20.6 17 -5.8         154.88
2018-Nov-28 16:01:51 1011.500 19.9 17 -6.4         154.88
2018-Nov-28 17:01:44 1011.700 15.2 23 -6.0         154.88
2018-Nov-28 18:01:43 1012.000 9.5 34 -5.7         154.88
2018-Nov-28 19:01:49 1012.600 5.8 44 -5.6         154.88
2018-Nov-28 20:02:02 1012.800 4.0 49 -5.8         154.88
2018-Nov-28 21:01:46 1012.700 3.5 51 -5.7         154.88
2018-Nov-28 22:01:30 1012.700 2.1 54 -6.2         154.88
2018-Nov-28 23:01:43 1012.700 0.9 57 -6.7         154.88

Temperatura Máxima:20°    Temperatura Mínima:-1°
Presión Máxima:1013.400 Hpa    Presión Mínima:1011.400 Hpa


Volver